Time;durP1;ratioP1;P1;durP2;ratioP2;P2;SDS_P1;SDS_P2;PMS_P1;PMS_P2;Temp;Humidity;BMP_temperature;BMP_pressure;BME280_temperature;BME280_humidity;BME280_pressure;Samples;Min_cycle;Max_cycle;Signal;HPM_P1;HPM_P2
2023/04/22 00:00:22;;;;;;;10.65;9.65;;;12.90;99.90;;;;;;4945548;28;20130;-80
2023/04/22 00:02:47;;;;;;;10.73;9.63;;;12.80;99.90;;;;;;4960669;28;20123;-79
2023/04/22 00:05:13;;;;;;;12.10;10.88;;;12.70;99.90;;;;;;4959330;28;20126;-81
2023/04/22 00:07:42;;;;;;;10.38;9.38;;;12.60;99.90;;;;;;4947931;28;20082;-82
2023/04/22 00:10:10;;;;;;;10.52;9.52;;;12.50;99.90;;;;;;4951780;28;20038;-82
2023/04/22 00:12:36;;;;;;;11.70;10.38;;;12.50;99.90;;;;;;4964885;28;20672;-81
2023/04/22 00:15:01;;;;;;;11.68;10.50;;;12.50;99.90;;;;;;4956331;28;20121;-80
2023/04/22 00:17:27;;;;;;;10.40;9.40;;;12.50;99.90;;;;;;4951361;28;20525;-81
2023/04/22 00:19:53;;;;;;;10.82;9.73;;;12.40;99.90;;;;;;4957004;28;20042;-79
2023/04/22 00:22:19;;;;;;;11.00;9.90;;;12.40;99.90;;;;;;4974099;28;20057;-80
2023/04/22 00:24:45;;;;;;;9.95;9.05;;;12.40;99.90;;;;;;4952152;28;20051;-80
2023/04/22 00:27:10;;;;;;;10.75;9.75;;;12.30;99.90;;;;;;4959122;28;20042;-80
2023/04/22 00:29:36;;;;;;;11.68;10.50;;;12.20;99.90;;;;;;4950423;28;20414;-81
2023/04/22 00:32:02;;;;;;;10.82;9.82;;;12.20;99.90;;;;;;4938581;28;20059;-82
2023/04/22 00:34:27;;;;;;;12.18;11.07;;;12.10;99.90;;;;;;4945046;28;20039;-82
2023/04/22 00:36:53;;;;;;;12.15;10.95;;;12.20;99.90;;;;;;4960390;28;20034;-81
2023/04/22 00:39:19;;;;;;;11.10;9.93;;;12.10;99.90;;;;;;4956900;28;20137;-81
2023/04/22 00:41:45;;;;;;;11.68;10.57;;;12.10;99.90;;;;;;4964349;28;20682;-80
2023/04/22 00:44:12;;;;;;;12.43;11.07;;;12.10;99.90;;;;;;4947554;28;20035;-80
2023/04/22 00:46:38;;;;;;;11.80;10.60;;;12.10;99.90;;;;;;4950284;28;20870;-81
2023/04/22 00:49:07;;;;;;;13.32;12.05;;;12.10;99.90;;;;;;4944948;28;20176;-81
2023/04/22 00:51:33;;;;;;;13.35;12.15;;;12.20;99.90;;;;;;4959737;28;20042;-81
2023/04/22 00:54:00;;;;;;;13.35;12.05;;;12.10;99.90;;;;;;4951760;28;20181;-81
2023/04/22 00:56:27;;;;;;;13.52;12.23;;;12.20;99.90;;;;;;4962906;28;20490;-80
2023/04/22 00:58:53;;;;;;;13.47;12.07;;;12.10;99.90;;;;;;4941499;28;20699;-79
2023/04/22 01:01:19;;;;;;;13.13;11.90;;;12.10;99.90;;;;;;4956428;28;20626;-80
2023/04/22 01:03:46;;;;;;;13.20;11.90;;;12.00;99.90;;;;;;4964979;28;20043;-79
2023/04/22 01:06:19;;;;;;;;;;;12.10;99.90;;;;;;4943764;28;20043;-82
2023/04/22 01:08:45;;;;;;;12.30;11.10;;;12.00;99.90;;;;;;4942518;28;19929;-80
2023/04/22 01:11:11;;;;;;;13.20;11.90;;;12.00;99.90;;;;;;4959892;28;20043;-81
2023/04/22 01:13:37;;;;;;;13.95;12.70;;;12.00;99.90;;;;;;4958603;28;20062;-81
2023/04/22 01:16:07;;;;;;;14.60;13.20;;;12.00;99.90;;;;;;4958385;28;20042;-81
2023/04/22 01:18:35;;;;;;;14.88;13.57;;;12.00;99.90;;;;;;4961812;28;20046;-79
2023/04/22 01:21:01;;;;;;;;;;;11.90;99.90;;;;;;4959412;28;20114;-80
2023/04/22 01:23:27;;;;;;;13.85;12.45;;;11.90;99.90;;;;;;4944909;28;19918;-82
2023/04/22 01:25:53;;;;;;;14.93;13.52;;;11.90;99.90;;;;;;4961224;28;20162;-80
2023/04/22 01:28:19;;;;;;;13.95;12.68;;;11.80;99.90;;;;;;4958939;28;20043;-79
2023/04/22 01:30:47;;;;;;;14.07;12.77;;;11.80;99.90;;;;;;4940556;28;20051;-81
2023/04/22 01:33:15;;;;;;;14.57;13.07;;;11.80;99.90;;;;;;4934322;28;20114;-80
2023/04/22 01:35:43;;;;;;;14.07;12.77;;;11.80;99.90;;;;;;4957105;28;20190;-80
2023/04/22 01:38:10;;;;;;;14.32;13.02;;;11.80;99.90;;;;;;4959609;28;20046;-81
2023/04/22 01:40:37;;;;;;;14.70;13.32;;;11.80;99.90;;;;;;4941760;28;20047;-80
2023/04/22 01:43:04;;;;;;;15.15;13.85;;;11.60;99.90;;;;;;4956724;28;20047;-80
2023/04/22 01:45:30;;;;;;;14.90;13.43;;;11.60;99.90;;;;;;4955890;28;20043;-80
2023/04/22 01:47:56;;;;;;;14.98;13.68;;;11.50;99.90;;;;;;4960044;28;20039;-80
2023/04/22 01:50:22;;;;;;;15.65;14.15;;;11.30;99.90;;;;;;4962333;28;20109;-81
2023/04/22 01:52:48;;;;;;;15.40;13.90;;;11.40;99.90;;;;;;4960661;28;21722;-80
2023/04/22 01:55:14;;;;;;;16.25;14.68;;;11.30;99.90;;;;;;4949666;28;20032;-81
2023/04/22 01:57:40;;;;;;;15.82;14.43;;;11.20;99.90;;;;;;4935328;28;20162;-80
2023/04/22 02:00:08;;;;;;;16.63;15.18;;;11.10;99.90;;;;;;4953742;28;20549;-80
2023/04/22 02:02:33;;;;;;;16.65;14.90;;;11.20;99.90;;;;;;4953805;28;20049;-80
2023/04/22 02:04:59;;;;;;;16.83;15.32;;;11.20;99.90;;;;;;4965165;28;20402;-81
2023/04/22 02:07:25;;;;;;;15.75;14.30;;;11.20;99.90;;;;;;4953122;28;20050;-80
2023/04/22 02:09:51;;;;;;;15.00;13.68;;;11.10;99.90;;;;;;4953680;28;20114;-80
2023/04/22 02:12:17;;;;;;;16.88;15.38;;;11.00;99.90;;;;;;4952524;28;20078;-80
2023/04/22 02:14:43;;;;;;;18.45;16.65;;;11.00;99.90;;;;;;4948320;28;20071;-81
2023/04/22 02:17:08;;;;;;;17.70;16.10;;;11.00;99.90;;;;;;4938195;28;20082;-81
2023/04/22 02:19:34;;;;;;;19.13;17.33;;;11.00;99.90;;;;;;4950229;28;20048;-81
2023/04/22 02:22:00;;;;;;;19.42;17.63;;;11.00;99.90;;;;;;4966499;28;20047;-80
2023/04/22 02:24:26;;;;;;;21.33;19.33;;;11.00;99.90;;;;;;4956967;28;20792;-80
2023/04/22 02:26:52;;;;;;;20.35;18.55;;;11.00;99.90;;;;;;4956702;28;20047;-80
2023/04/22 02:29:17;;;;;;;20.02;18.23;;;11.10;99.90;;;;;;4961077;28;20126;-80
2023/04/22 02:31:43;;;;;;;20.42;18.55;;;11.00;99.90;;;;;;4957547;28;20047;-80
2023/04/22 02:34:09;;;;;;;18.58;16.88;;;11.00;99.90;;;;;;4940383;28;20047;-80
2023/04/22 02:36:34;;;;;;;20.42;18.60;;;10.90;99.90;;;;;;4959105;28;20066;-80
2023/04/22 02:39:04;;;;;;;21.35;19.38;;;10.80;99.90;;;;;;4952859;28;20054;-80
2023/04/22 02:41:30;;;;;;;23.15;21.05;;;10.70;99.90;;;;;;4956580;28;20110;-80
2023/04/22 02:43:56;;;;;;;21.40;19.40;;;10.70;99.90;;;;;;4934878;28;20691;-81
2023/04/22 02:46:21;;;;;;;20.70;18.80;;;10.70;99.90;;;;;;4966387;28;20145;-80
2023/04/22 02:48:48;;;;;;;19.27;17.58;;;10.70;99.90;;;;;;4960013;28;20140;-80
2023/04/22 02:51:14;;;;;;;19.23;17.53;;;10.70;99.90;;;;;;4958254;28;20113;-81
2023/04/22 02:53:40;;;;;;;19.40;17.70;;;10.70;99.90;;;;;;4965386;28;20038;-81
2023/04/22 02:56:07;;;;;;;19.88;18.17;;;10.70;99.90;;;;;;4949955;28;20081;-81
2023/04/22 02:58:33;;;;;;;21.00;18.95;;;10.70;99.90;;;;;;4958017;28;20470;-80
2023/04/22 03:00:59;;;;;;;21.27;19.33;;;10.60;99.90;;;;;;4962279;28;20360;-80
2023/04/22 03:03:25;;;;;;;23.42;21.42;;;10.60;99.90;;;;;;4969125;28;20608;-81
2023/04/22 03:05:51;;;;;;;23.63;21.42;;;10.60;99.90;;;;;;4944352;28;20078;-80
2023/04/22 03:08:16;;;;;;;25.00;22.80;;;10.60;99.90;;;;;;4940513;28;20090;-79
2023/04/22 03:10:42;;;;;;;23.85;21.55;;;10.60;99.90;;;;;;4965838;28;20042;-81
2023/04/22 03:13:08;;;;;;;23.45;21.35;;;10.60;99.90;;;;;;4953762;28;20046;-81
2023/04/22 03:15:33;;;;;;;21.85;19.80;;;10.60;99.90;;;;;;4944374;28;20131;-79
2023/04/22 03:18:05;;;;;;;21.77;19.60;;;10.70;99.90;;;;;;4965664;28;20140;-80
2023/04/22 03:20:31;;;;;;;21.40;19.50;;;10.70;99.90;;;;;;4960027;28;20046;-80
2023/04/22 03:22:56;;;;;;;21.25;19.25;;;10.70;99.90;;;;;;4948257;28;20038;-81
2023/04/22 03:25:22;;;;;;;21.17;19.33;;;10.70;99.90;;;;;;4956156;28;20042;-80
2023/04/22 03:27:50;;;;;;;21.48;19.58;;;10.70;99.90;;;;;;4939974;28;20058;-80
2023/04/22 03:30:16;;;;;;;21.88;19.75;;;10.70;99.90;;;;;;4953669;28;20687;-79
2023/04/22 03:32:42;;;;;;;21.95;19.70;;;10.70;99.90;;;;;;4961831;28;20050;-81
2023/04/22 03:35:08;;;;;;;21.52;19.63;;;10.70;99.90;;;;;;4958434;28;20126;-79
2023/04/22 03:37:33;;;;;;;23.08;20.67;;;10.70;99.90;;;;;;4946002;28;20505;-81
2023/04/22 03:39:59;;;;;;;22.27;20.23;;;10.70;99.90;;;;;;4944993;28;21091;-79
2023/04/22 03:42:25;;;;;;;21.38;19.48;;;10.80;99.90;;;;;;4953724;28;20035;-81
2023/04/22 03:44:51;;;;;;;21.50;19.20;;;10.80;99.90;;;;;;4951606;28;20038;-79
2023/04/22 03:47:16;;;;;;;20.77;18.88;;;10.80;99.90;;;;;;4935529;28;20524;-80
2023/04/22 03:49:42;;;;;;;21.73;19.58;;;10.80;99.90;;;;;;4951335;28;20054;-80
2023/04/22 03:52:07;;;;;;;20.83;18.88;;;10.80;99.90;;;;;;4959308;28;20608;-80
2023/04/22 03:54:33;;;;;;;21.80;19.65;;;10.80;99.90;;;;;;4963538;28;20035;-79
2023/04/22 03:56:59;;;;;;;21.02;19.23;;;10.80;99.90;;;;;;4954331;28;20047;-80
2023/04/22 03:59:25;;;;;;;20.35;18.27;;;10.80;99.90;;;;;;4952748;28;20051;-80
2023/04/22 04:01:52;;;;;;;20.73;18.60;;;10.70;99.90;;;;;;4962689;28;20046;-79
2023/04/22 04:04:18;;;;;;;20.52;18.63;;;10.60;99.90;;;;;;4964986;28;20038;-80
2023/04/22 04:06:44;;;;;;;20.27;18.40;;;10.50;99.90;;;;;;4964962;28;20047;-81
2023/04/22 04:09:10;;;;;;;20.73;18.88;;;10.40;99.90;;;;;;4959361;28;20129;-81
2023/04/22 04:11:36;;;;;;;20.25;18.45;;;10.40;99.90;;;;;;4954715;28;20059;-80
2023/04/22 04:14:02;;;;;;;19.70;17.70;;;10.30;99.90;;;;;;4955579;28;20596;-81
2023/04/22 04:16:28;;;;;;;20.92;19.13;;;10.30;99.90;;;;;;4963235;28;20491;-79
2023/04/22 04:18:54;;;;;;;20.77;18.88;;;10.20;99.90;;;;;;4949417;28;20043;-79
2023/04/22 04:21:19;;;;;;;19.17;17.50;;;10.20;99.90;;;;;;4932594;28;20058;-80
2023/04/22 04:23:46;;;;;;;20.25;18.35;;;10.20;99.90;;;;;;4958976;28;20556;-80
2023/04/22 04:26:16;;;;;;;21.83;19.88;;;10.20;99.90;;;;;;4963284;28;20103;-80
2023/04/22 04:28:42;;;;;;;21.48;19.38;;;10.20;99.90;;;;;;4957180;28;20050;-79
2023/04/22 04:31:08;;;;;;;20.65;18.80;;;10.30;99.90;;;;;;4958805;28;20051;-79
2023/04/22 04:33:35;;;;;;;22.60;20.60;;;10.30;99.90;;;;;;4940655;28;20051;-80
2023/04/22 04:36:01;;;;;;;21.08;18.98;;;10.40;99.90;;;;;;4960307;28;20057;-81
2023/04/22 04:38:27;;;;;;;21.30;19.30;;;10.50;99.90;;;;;;4944289;28;20058;-80
2023/04/22 04:40:53;;;;;;;19.83;18.17;;;10.60;99.90;;;;;;4959688;28;20047;-81
2023/04/22 04:43:20;;;;;;;20.15;18.35;;;10.60;99.90;;;;;;4962547;28;20537;-81
2023/04/22 04:45:45;;;;;;;21.20;19.30;;;10.70;99.90;;;;;;4956442;28;20043;-80
2023/04/22 04:48:15;;;;;;;21.63;19.55;;;10.70;99.90;;;;;;4960580;28;20406;-81
2023/04/22 04:50:44;;;;;;;21.38;19.38;;;10.90;99.90;;;;;;4962646;28;20453;-81
2023/04/22 04:53:10;;;;;;;22.55;20.45;;;10.90;99.90;;;;;;4952921;28;20077;-81
2023/04/22 04:55:37;;;;;;;22.02;20.02;;;10.90;99.90;;;;;;4957684;28;20047;-79
2023/04/22 04:58:03;;;;;;;21.73;19.73;;;10.90;99.90;;;;;;4957519;28;20059;-77
2023/04/22 05:00:29;;;;;;;23.00;20.92;;;11.00;99.90;;;;;;4961543;28;20043;-80
2023/04/22 05:02:55;;;;;;;22.30;20.20;;;11.00;99.90;;;;;;4949071;28;20061;-81
2023/04/22 05:05:20;;;;;;;22.55;20.30;;;11.00;99.90;;;;;;4963950;28;20482;-79
2023/04/22 05:07:46;;;;;;;22.17;20.25;;;11.00;99.90;;;;;;4960635;28;20112;-82
2023/04/22 05:10:12;;;;;;;20.80;18.92;;;11.10;99.90;;;;;;4949204;28;20134;-79
2023/04/22 05:12:38;;;;;;;21.15;19.35;;;11.20;99.90;;;;;;4954175;28;20085;-79
2023/04/22 05:15:04;;;;;;;21.90;20.00;;;11.10;99.90;;;;;;4950138;28;20070;-80
2023/04/22 05:17:31;;;;;;;22.20;20.10;;;11.10;99.90;;;;;;4933724;28;20190;-83
2023/04/22 05:19:56;;;;;;;22.98;20.70;;;11.10;99.90;;;;;;4956459;28;20724;-79
2023/04/22 05:22:22;;;;;;;22.92;20.80;;;11.20;99.90;;;;;;4967061;28;20170;-81
2023/04/22 05:24:48;;;;;;;21.92;19.92;;;11.20;99.90;;;;;;4956377;28;20047;-80
2023/04/22 05:27:17;;;;;;;22.20;20.15;;;11.20;99.90;;;;;;4956291;28;20047;-81
2023/04/22 05:29:52;;;;;;;19.67;17.67;;;11.20;99.90;;;;;;4941706;28;20100;-81
2023/04/22 05:32:18;;;;;;;20.35;18.55;;;11.30;99.90;;;;;;4955055;28;20039;-81
2023/04/22 05:34:43;;;;;;;19.83;18.02;;;11.30;99.90;;;;;;4960257;28;20043;-79
2023/04/22 05:37:09;;;;;;;19.95;17.90;;;11.30;99.90;;;;;;4962116;28;20058;-80
2023/04/22 05:39:35;;;;;;;19.60;17.40;;;11.40;99.90;;;;;;4961349;28;20074;-81
2023/04/22 05:42:01;;;;;;;18.85;17.10;;;11.40;99.90;;;;;;4957077;28;20077;-80
2023/04/22 05:44:27;;;;;;;19.85;17.90;;;11.50;99.90;;;;;;4962108;28;20139;-80
2023/04/22 05:46:55;;;;;;;19.13;17.23;;;11.40;99.90;;;;;;4956767;28;20046;-81
2023/04/22 05:49:20;;;;;;;19.13;17.33;;;11.40;99.90;;;;;;4963290;28;20051;-81
2023/04/22 05:51:46;;;;;;;18.88;17.05;;;11.50;99.90;;;;;;4945021;28;20121;-81
2023/04/22 05:54:12;;;;;;;19.50;17.70;;;11.50;99.90;;;;;;4968875;28;20062;-80
2023/04/22 05:56:37;;;;;;;19.73;17.73;;;11.40;99.90;;;;;;4951328;28;21416;-80
2023/04/22 05:59:03;;;;;;;19.35;17.40;;;11.40;99.90;;;;;;4972362;28;20580;-80
2023/04/22 06:01:41;;;;;;;19.60;17.70;;;11.50;99.90;;;;;;4968668;28;20055;-80
2023/04/22 06:04:08;;;;;;;19.10;17.40;;;11.60;99.90;;;;;;4951147;28;20105;-81
2023/04/22 06:06:35;;;;;;;18.83;17.10;;;11.60;99.90;;;;;;4958385;28;20103;-82
2023/04/22 06:09:01;;;;;;;19.48;17.65;;;11.60;99.90;;;;;;4969924;28;20556;-80
2023/04/22 06:11:27;;;;;;;18.27;16.58;;;11.60;99.90;;;;;;4955797;28;20043;-81
2023/04/22 06:16:39;;;;;;;17.90;16.20;;;11.70;99.90;;;;;;4939173;28;20058;-80
2023/04/22 06:19:06;;;;;;;18.67;17.00;;;11.70;99.90;;;;;;4950322;28;20073;-80
2023/04/22 06:21:32;;;;;;;18.20;16.43;;;11.70;99.90;;;;;;4959288;28;20039;-81
2023/04/22 06:24:00;;;;;;;18.45;16.60;;;11.70;99.90;;;;;;4956410;28;20055;-81
2023/04/22 06:26:25;;;;;;;;;;;11.80;99.90;;;;;;4954926;28;20077;-81
2023/04/22 06:28:51;;;;;;;18.63;16.92;;;11.80;99.90;;;;;;4946255;28;19972;-80
2023/04/22 06:31:17;;;;;;;18.60;16.88;;;11.80;99.90;;;;;;4947299;28;20043;-80
2023/04/22 06:33:43;;;;;;;18.35;16.65;;;11.90;99.90;;;;;;4949291;28;20129;-79
2023/04/22 06:36:09;;;;;;;18.92;17.23;;;11.80;99.90;;;;;;4960766;28;20039;-82
2023/04/22 06:38:35;;;;;;;18.20;16.40;;;11.90;99.90;;;;;;4973179;28;20043;-79
2023/04/22 06:41:16;;;;;;;18.65;16.92;;;11.90;99.90;;;;;;4963530;28;20047;-80
2023/04/22 06:43:57;;;;;;;18.80;16.98;;;11.90;99.90;;;;;;4970140;28;20070;-80
2023/04/22 06:46:23;;;;;;;19.13;17.33;;;11.90;99.90;;;;;;4968741;28;20058;-79
2023/04/22 06:48:48;;;;;;;18.17;16.38;;;12.00;99.90;;;;;;4966046;28;20039;-84
2023/04/22 06:51:14;;;;;;;17.77;16.10;;;12.00;99.90;;;;;;4948450;28;20121;-84
2023/04/22 06:53:40;;;;;;;17.90;16.30;;;12.10;99.90;;;;;;4950340;28;20146;-83
2023/04/22 06:56:06;;;;;;;18.27;16.67;;;12.10;99.90;;;;;;4945504;28;20133;-78
2023/04/22 06:58:31;;;;;;;17.73;16.05;;;12.10;99.90;;;;;;4959949;28;20063;-79
2023/04/22 07:00:57;;;;;;;17.67;16.08;;;12.20;99.90;;;;;;4967901;28;20097;-76
2023/04/22 07:03:23;;;;;;;17.77;16.08;;;12.30;99.90;;;;;;4951305;28;20073;-74
2023/04/22 07:05:49;;;;;;;16.95;15.45;;;12.30;99.90;;;;;;4958054;28;20058;-78
2023/04/22 07:08:14;;;;;;;18.08;16.38;;;12.30;99.90;;;;;;4956390;28;20126;-78
2023/04/22 07:10:40;;;;;;;18.15;16.40;;;12.40;99.90;;;;;;4946877;28;20075;-76
2023/04/22 07:13:06;;;;;;;18.73;16.65;;;12.40;99.90;;;;;;4960241;28;20054;-76
2023/04/22 07:15:32;;;;;;;15.68;14.25;;;12.50;99.90;;;;;;4956762;28;20035;-74
2023/04/22 07:17:58;;;;;;;18.08;16.48;;;12.60;99.90;;;;;;4974336;28;20115;-73
2023/04/22 07:20:23;;;;;;;17.77;16.08;;;12.60;99.90;;;;;;4957109;28;20050;-74
2023/04/22 07:22:50;;;;;;;16.95;15.38;;;12.70;99.90;;;;;;4966822;28;20049;-74
2023/04/22 07:25:15;;;;;;;17.23;15.52;;;12.70;99.90;;;;;;4961087;28;20041;-76
2023/04/22 07:27:41;;;;;;;17.02;15.45;;;12.70;99.90;;;;;;4964442;28;20481;-73
2023/04/22 07:30:07;;;;;;;17.02;15.23;;;12.70;99.90;;;;;;4961426;28;20142;-73
2023/04/22 07:32:33;;;;;;;17.08;15.43;;;12.80;99.90;;;;;;4968219;28;20046;-73
2023/04/22 07:34:59;;;;;;;16.55;15.15;;;12.90;99.90;;;;;;4952022;28;20047;-74
2023/04/22 07:37:25;;;;;;;16.52;14.93;;;12.90;99.90;;;;;;4942225;28;20054;-77
2023/04/22 07:39:50;;;;;;;16.33;14.73;;;13.00;99.90;;;;;;4954744;28;20486;-77
2023/04/22 07:42:16;;;;;;;16.58;15.07;;;13.10;99.90;;;;;;4957730;28;20039;-78
2023/04/22 07:44:42;;;;;;;17.20;15.50;;;13.20;99.90;;;;;;4951892;28;20054;-76
2023/04/22 07:47:07;;;;;;;16.60;15.00;;;13.20;99.90;;;;;;4955404;28;20078;-77
2023/04/22 07:49:33;;;;;;;15.75;14.25;;;13.40;99.90;;;;;;4966357;28;20152;-77
2023/04/22 07:51:59;;;;;;;15.23;13.60;;;13.50;99.90;;;;;;4964684;28;20046;-79
2023/04/22 07:54:24;;;;;;;15.43;13.55;;;13.60;99.90;;;;;;4958955;28;20395;-78
2023/04/22 07:56:50;;;;;;;16.42;14.82;;;13.60;99.90;;;;;;4959928;28;20050;-75
2023/04/22 07:59:16;;;;;;;13.43;12.23;;;13.70;99.90;;;;;;4962935;28;20109;-77
2023/04/22 08:01:44;;;;;;;15.05;13.65;;;13.80;99.90;;;;;;4948707;28;20047;-80
2023/04/22 08:04:10;;;;;;;15.35;13.40;;;14.00;99.90;;;;;;4950280;28;20271;-79
2023/04/22 08:06:36;;;;;;;13.30;12.00;;;14.10;99.90;;;;;;4951506;28;20047;-79
2023/04/22 08:09:02;;;;;;;13.27;12.07;;;14.10;99.90;;;;;;4963972;28;20097;-80
2023/04/22 08:11:27;;;;;;;14.80;13.30;;;14.20;99.90;;;;;;4971808;28;20378;-77
2023/04/22 08:13:53;;;;;;;14.38;13.07;;;14.30;99.90;;;;;;4953201;28;20058;-79
2023/04/22 08:16:19;;;;;;;14.10;12.65;;;14.40;99.90;;;;;;4951863;28;20155;-79
2023/04/22 08:18:45;;;;;;;12.82;11.68;;;14.40;99.90;;;;;;4946353;28;20569;-75
2023/04/22 08:21:11;;;;;;;12.95;11.65;;;14.60;99.90;;;;;;4974288;28;20060;-75
2023/04/22 08:23:36;;;;;;;13.75;12.35;;;14.70;99.90;;;;;;4949396;28;20483;-75
2023/04/22 08:26:03;;;;;;;13.30;12.05;;;14.90;99.90;;;;;;4950618;28;20054;-75
2023/04/22 08:28:28;;;;;;;13.13;11.23;;;15.00;99.90;;;;;;4950227;28;20051;-75
2023/04/22 08:30:54;;;;;;;12.57;11.40;;;15.20;99.90;;;;;;4949807;28;20043;-75
2023/04/22 08:33:20;;;;;;;13.20;11.85;;;15.30;99.90;;;;;;4957169;28;20046;-75
2023/04/22 08:35:46;;;;;;;12.30;11.10;;;15.40;99.90;;;;;;4954317;28;20051;-73
2023/04/22 08:38:11;;;;;;;12.35;10.48;;;15.40;99.90;;;;;;4944392;28;20082;-76
2023/04/22 08:40:41;;;;;;;12.70;11.45;;;15.50;99.90;;;;;;4962927;28;20078;-76
2023/04/22 08:43:06;;;;;;;11.80;10.73;;;15.60;99.90;;;;;;4954728;28;20126;-75
2023/04/22 08:45:32;;;;;;;11.75;10.57;;;15.70;99.90;;;;;;4964203;28;20147;-74
2023/04/22 08:47:59;;;;;;;11.65;10.48;;;15.80;99.90;;;;;;4958477;28;20050;-78
2023/04/22 08:50:25;;;;;;;12.00;10.82;;;15.90;99.90;;;;;;4956614;28;20035;-76
2023/04/22 08:52:51;;;;;;;11.27;9.90;;;15.90;99.90;;;;;;4966504;28;20477;-77
2023/04/22 08:55:17;;;;;;;11.32;10.13;;;16.00;99.90;;;;;;4973811;28;20078;-77
2023/04/22 08:57:43;;;;;;;11.30;10.30;;;16.10;99.90;;;;;;4940101;29;20518;-77
2023/04/22 09:00:10;;;;;;;11.77;10.30;;;16.20;99.90;;;;;;4964324;28;20070;-76
2023/04/22 09:02:47;;;;;;;11.48;10.38;;;16.30;99.90;;;;;;5109103;27;20180;-74
2023/04/22 09:05:13;;;;;;;10.07;8.98;;;16.40;99.90;;;;;;5100872;28;20039;-75
2023/04/22 09:07:39;;;;;;;11.48;9.63;;;16.50;99.90;;;;;;5104079;28;20054;-74
2023/04/22 09:10:07;;;;;;;10.00;9.00;;;16.50;99.90;;;;;;5104764;28;20052;-74
2023/04/22 09:12:33;;;;;;;9.75;8.75;;;16.60;99.90;;;;;;5095559;28;20052;-75
2023/04/22 09:14:59;;;;;;;9.50;8.60;;;16.70;99.90;;;;;;5098507;28;20104;-74
2023/04/22 09:17:36;;;;;;;8.63;7.70;;;16.80;99.90;;;;;;5101863;28;20040;-75
2023/04/22 09:20:05;;;;;;;9.05;8.10;;;16.80;99.90;;;;;;5102410;28;20056;-74
2023/04/22 09:22:43;;;;;;;8.07;7.28;;;16.90;99.90;;;;;;5104733;28;20039;-75
2023/04/22 09:25:16;;;;;;;8.18;7.38;;;16.90;99.90;;;;;;5092460;28;20101;-75
2023/04/22 09:27:42;;;;;;;9.63;7.75;;;17.00;99.90;;;;;;5082950;28;20131;-75
2023/04/22 09:30:08;;;;;;;13.20;11.88;;;17.00;99.90;;;;;;5104831;28;20119;-74
2023/04/22 09:32:34;;;;;;;10.68;9.57;;;17.10;99.90;;;;;;5104884;28;20038;-74
2023/04/22 09:35:00;;;;;;;19.48;17.38;;;17.20;99.90;;;;;;5085649;28;20047;-74
2023/04/22 09:37:26;;;;;;;12.68;11.38;;;17.30;99.90;;;;;;5099769;28;20035;-75
2023/04/22 09:39:53;;;;;;;9.73;8.20;;;17.30;99.90;;;;;;5104090;28;20498;-75
2023/04/22 09:42:20;;;;;;;8.90;7.45;;;17.40;99.90;;;;;;5100506;28;20096;-74
2023/04/22 09:44:48;;;;;;;9.43;7.90;;;17.50;99.90;;;;;;5096153;28;20044;-75
2023/04/22 09:47:14;;;;;;;10.82;6.68;;;17.50;99.90;;;;;;5103243;28;20096;-75
2023/04/22 09:49:48;;;;;;;7.80;7.00;;;17.50;99.90;;;;;;5086015;28;20514;-75
2023/04/22 09:52:23;;;;;;;9.18;7.10;;;17.60;99.90;;;;;;5104584;28;20027;-74
2023/04/22 09:54:52;;;;;;;10.23;7.72;;;17.70;99.90;;;;;;5101876;28;20498;-76
2023/04/22 09:57:20;;;;;;;8.65;7.75;;;17.70;99.90;;;;;;5102933;28;20040;-74
2023/04/22 09:59:47;;;;;;;8.55;7.65;;;17.80;99.90;;;;;;5104667;28;20051;-75
2023/04/22 10:02:13;;;;;;;8.20;7.40;;;17.80;99.90;;;;;;5102925;28;20060;-74
2023/04/22 10:04:38;;;;;;;10.60;7.80;;;17.90;99.90;;;;;;5103244;28;20043;-74
2023/04/22 10:07:05;;;;;;;9.25;7.75;;;18.00;99.90;;;;;;5104155;28;20043;-74
2023/04/22 10:09:31;;;;;;;8.45;7.65;;;18.10;99.90;;;;;;5082932;28;20478;-75
2023/04/22 10:11:57;;;;;;;12.35;7.55;;;18.20;99.90;;;;;;5102587;28;20050;-75
2023/04/22 10:14:24;;;;;;;10.20;8.15;;;18.30;99.90;;;;;;5072152;28;20036;-75
2023/04/22 10:16:55;;;;;;;9.60;8.40;;;18.30;99.90;;;;;;5089087;28;20513;-75
2023/04/22 10:19:22;;;;;;;9.32;8.35;;;18.40;99.90;;;;;;5089904;28;20036;-75
2023/04/22 10:22:01;;;;;;;12.07;9.73;;;18.50;99.90;;;;;;5090120;28;20280;-74
2023/04/22 10:24:28;;;;;;;9.70;8.68;;;18.50;99.90;;;;;;5078919;28;20036;-74
2023/04/22 10:26:58;;;;;;;10.13;8.38;;;18.60;99.90;;;;;;5087595;28;20042;-74
2023/04/22 10:29:35;;;;;;;8.95;8.05;;;18.60;99.90;;;;;;5082301;28;20079;-76
2023/04/22 10:32:05;;;;;;;10.77;8.93;;;18.70;99.90;;;;;;5069397;28;20097;-82
2023/04/22 10:34:31;;;;;;;11.15;8.70;;;18.70;99.90;;;;;;5086408;28;20730;-74
2023/04/22 10:37:04;;;;;;;9.57;8.68;;;18.80;99.90;;;;;;5086528;28;20040;-73
2023/04/22 10:39:30;;;;;;;9.85;8.07;;;18.90;99.90;;;;;;5069369;28;20407;-74
2023/04/22 10:42:05;;;;;;;9.48;8.60;;;19.00;99.90;;;;;;5086481;28;20060;-74
2023/04/22 10:44:51;;;;;;;9.05;8.10;;;19.10;99.90;;;;;;5069958;28;20070;-74
2023/04/22 10:47:30;;;;;;;9.77;8.88;;;19.20;99.90;;;;;;5084629;28;20202;-74
2023/04/22 10:50:14;;;;;;;9.75;8.85;;;19.30;99.90;;;;;;5087629;28;20207;-74
2023/04/22 10:52:41;;;;;;;9.85;8.30;;;19.40;99.90;;;;;;5069400;28;20502;-78
2023/04/22 10:55:07;;;;;;;;;;;19.50;99.60;;;;;;5087169;28;20107;-73
2023/04/22 10:57:38;;;;;;;9.47;8.47;;;19.50;99.80;;;;;;5096445;28;19951;-75
2023/04/22 11:00:16;;;;;;;9.50;7.60;;;19.50;99.90;;;;;;5082536;28;20040;-75
2023/04/22 11:02:46;;;;;;;10.25;7.75;;;19.60;98.30;;;;;;5081689;28;20066;-73
2023/04/22 11:05:25;;;;;;;8.95;7.68;;;19.70;97.30;;;;;;5066526;28;20071;-79
2023/04/22 11:07:53;;;;;;;8.38;7.57;;;19.70;96.80;;;;;;5084158;28;20040;-82
2023/04/22 11:10:42;;;;;;;8.93;7.63;;;19.70;96.90;;;;;;5088471;28;20052;-78
2023/04/22 11:13:14;;;;;;;9.93;7.47;;;19.80;95.80;;;;;;5081511;28;20059;-78
2023/04/22 11:15:41;;;;;;;9.02;7.90;;;19.80;95.60;;;;;;5086610;28;20097;-78
2023/04/22 11:18:10;;;;;;;8.52;7.72;;;19.90;95.30;;;;;;5082091;28;20652;-78
2023/04/22 11:20:36;;;;;;;9.40;8.20;;;19.90;94.60;;;;;;5082274;28;20036;-78
2023/04/22 11:23:02;;;;;;;8.90;8.00;;;20.00;94.30;;;;;;5089089;28;20067;-78
2023/04/22 11:25:27;;;;;;;9.50;7.50;;;20.00;93.80;;;;;;5087780;28;20040;-78
2023/04/22 11:27:56;;;;;;;8.88;7.28;;;20.00;93.40;;;;;;5072259;28;20109;-78
2023/04/22 11:30:24;;;;;;;8.65;7.75;;;20.00;93.60;;;;;;5087176;28;20043;-78
2023/04/22 11:32:50;;;;;;;;;;;20.00;93.60;;;;;;5069013;28;20055;-77
2023/04/22 11:35:27;;;;;;;14.90;8.57;;;20.10;94.10;;;;;;5088173;28;19926;-76
2023/04/22 11:37:56;;;;;;;9.85;8.32;;;20.10;93.40;;;;;;5088814;28;20047;-78
2023/04/22 11:40:33;;;;;;;9.07;8.07;;;20.00;92.90;;;;;;5087870;28;20040;-78
2023/04/22 11:43:01;;;;;;;11.05;8.07;;;19.90;92.90;;;;;;5087619;28;20100;-78
2023/04/22 11:45:34;;;;;;;8.90;8.00;;;19.80;92.50;;;;;;5089132;28;20051;-78
2023/04/22 11:48:01;;;;;;;8.55;7.70;;;19.80;92.10;;;;;;5085434;28;20461;-78
2023/04/22 11:50:28;;;;;;;;;;;19.80;92.70;;;;;;5088844;28;20145;-78
2023/04/22 11:53:02;;;;;;;8.45;7.65;;;19.80;93.80;;;;;;5088803;28;20371;-78
2023/04/22 11:55:29;;;;;;;9.18;8.07;;;19.80;93.30;;;;;;5075098;28;20045;-78
2023/04/22 11:58:15;;;;;;;9.20;8.30;;;19.80;93.10;;;;;;5081879;28;20031;-76
2023/04/22 12:00:44;;;;;;;12.40;8.32;;;20.00;93.80;;;;;;5066061;28;20063;-77
2023/04/22 12:03:16;;;;;;;9.35;7.53;;;20.00;93.30;;;;;;5075043;28;20524;-77
2023/04/22 12:05:53;;;;;;;11.45;7.88;;;20.20;92.60;;;;;;5079093;28;20072;-78
2023/04/22 12:08:21;;;;;;;8.82;7.30;;;20.30;91.90;;;;;;5076711;28;20113;-76
2023/04/22 12:10:54;;;;;;;8.70;7.50;;;20.40;92.00;;;;;;5082239;28;20051;-76
2023/04/22 12:13:25;;;;;;;10.07;7.85;;;20.50;91.40;;;;;;5061557;28;20036;-78
2023/04/22 12:15:56;;;;;;;8.13;7.00;;;20.60;90.00;;;;;;5079832;28;20044;-75
2023/04/22 12:18:52;;;;;;;8.55;7.28;;;20.70;89.50;;;;;;5087715;28;20048;-75
2023/04/22 12:21:21;;;;;;;7.68;6.85;;;20.70;88.70;;;;;;5065196;28;20117;-75
2023/04/22 12:23:54;;;;;;;8.52;7.30;;;20.70;89.40;;;;;;5075910;28;20079;-75
2023/04/22 12:26:23;;;;;;;8.80;7.43;;;20.80;90.10;;;;;;5087322;28;20564;-75
2023/04/22 12:28:49;;;;;;;8.95;7.53;;;20.90;89.70;;;;;;5087096;28;20040;-73
2023/04/22 12:31:16;;;;;;;8.63;7.72;;;20.90;89.10;;;;;;5082632;28;20627;-73
2023/04/22 12:33:42;;;;;;;9.25;8.30;;;20.90;87.30;;;;;;5087559;28;20052;-74
2023/04/22 12:36:09;;;;;;;8.40;7.50;;;20.80;86.20;;;;;;5083937;28;20044;-74